Time;durP1;ratioP1;P1;durP2;ratioP2;P2;SDS_P1;SDS_P2;PMS_P1;PMS_P2;Temp;Humidity;BMP_temperature;BMP_pressure;BME280_temperature;BME280_humidity;BME280_pressure;Samples;Min_cycle;Max_cycle;Signal;HPM_P1;HPM_P2
2023/08/19 00:01:25;;;;;;;17.37;13.43;;;18.70;99.90;;;;;;5113924;28;20822;-51
2023/08/19 00:03:51;;;;;;;24.27;15.90;;;18.70;99.90;;;;;;5114002;28;20262;-51
2023/08/19 00:06:39;;;;;;;27.63;14.87;;;18.70;99.90;;;;;;5114369;28;20174;-51
2023/08/19 00:09:08;;;;;;;20.97;15.13;;;18.60;99.90;;;;;;5113786;28;20799;-51
2023/08/19 00:11:35;;;;;;;17.97;15.13;;;18.60;99.90;;;;;;5114019;28;20453;-51
2023/08/19 00:14:01;;;;;;;23.80;14.97;;;18.60;99.90;;;;;;5114147;28;20416;-51
2023/08/19 00:16:27;;;;;;;18.50;15.00;;;18.60;99.90;;;;;;5114025;28;20417;-51
2023/08/19 00:18:53;;;;;;;18.60;14.60;;;18.60;99.90;;;;;;5118319;28;20471;-51
2023/08/19 00:21:18;;;;;;;19.90;15.30;;;18.60;99.90;;;;;;5117445;28;20645;-50
2023/08/19 00:23:44;;;;;;;18.60;14.53;;;18.60;99.90;;;;;;5117751;28;20172;-51
2023/08/19 00:26:12;;;;;;;21.30;15.83;;;18.70;99.90;;;;;;5117467;28;20271;-52
2023/08/19 00:28:39;;;;;;;24.83;17.40;;;18.70;99.90;;;;;;5117457;28;20197;-50
2023/08/19 00:31:05;;;;;;;22.03;16.57;;;18.80;99.90;;;;;;5117382;28;20444;-51
2023/08/19 00:33:31;;;;;;;24.43;16.80;;;18.90;99.90;;;;;;5117589;28;20486;-50
2023/08/19 00:35:56;;;;;;;21.37;17.47;;;19.00;99.90;;;;;;5117561;28;20408;-50
2023/08/19 00:38:22;;;;;;;20.03;16.27;;;19.00;99.90;;;;;;5117579;28;20533;-51
2023/08/19 00:40:48;;;;;;;21.67;15.57;;;19.10;99.90;;;;;;5117645;28;20283;-51
2023/08/19 00:43:13;;;;;;;26.43;16.90;;;19.10;99.90;;;;;;5117200;28;20667;-51
2023/08/19 00:45:49;;;;;;;22.00;15.37;;;19.10;99.90;;;;;;5117292;28;20180;-50
2023/08/19 00:48:17;;;;;;;20.57;16.50;;;19.10;99.90;;;;;;5117439;28;20170;-50
2023/08/19 00:50:44;;;;;;;23.40;17.20;;;19.10;99.90;;;;;;5117462;28;20418;-51
2023/08/19 00:53:11;;;;;;;18.60;16.07;;;19.10;99.90;;;;;;5117447;28;20775;-51
2023/08/19 00:55:37;;;;;;;20.57;16.60;;;19.10;99.90;;;;;;5117181;28;20802;-51
2023/08/19 00:58:07;;;;;;;27.10;17.47;;;19.10;99.90;;;;;;5117177;28;20413;-51
2023/08/19 01:00:34;;;;;;;24.10;16.67;;;19.10;99.90;;;;;;5117582;28;20177;-50
2023/08/19 01:03:00;;;;;;;21.50;17.50;;;19.10;99.90;;;;;;5117332;28;20411;-50
2023/08/19 01:05:47;;;;;;;22.40;17.80;;;19.10;99.90;;;;;;5117123;28;20414;-50
2023/08/19 01:08:20;;;;;;;20.30;17.73;;;19.20;99.90;;;;;;5117144;28;20180;-51
2023/08/19 01:10:58;;;;;;;24.97;17.13;;;19.20;99.90;;;;;;5116841;28;20409;-50
2023/08/19 01:13:30;;;;;;;24.97;18.77;;;19.20;99.90;;;;;;5117078;28;20409;-50
2023/08/19 01:16:04;;;;;;;23.37;17.37;;;19.20;99.90;;;;;;5117126;28;20406;-50
2023/08/19 01:18:30;;;;;;;24.60;17.23;;;19.20;99.90;;;;;;5116869;28;20869;-50
2023/08/19 01:20:57;;;;;;;29.43;18.80;;;19.20;99.90;;;;;;5116625;28;20416;-50
2023/08/19 01:23:30;;;;;;;23.63;17.93;;;19.20;99.90;;;;;;5117101;28;20398;-50
2023/08/19 01:25:56;;;;;;;31.50;20.47;;;19.30;99.90;;;;;;5116855;28;20418;-50
2023/08/19 01:28:22;;;;;;;22.23;17.90;;;19.30;99.90;;;;;;5115993;28;20409;-51
2023/08/19 01:30:47;;;;;;;30.17;19.20;;;19.30;99.90;;;;;;5116445;28;20797;-50
2023/08/19 01:33:13;;;;;;;27.67;18.93;;;19.30;99.90;;;;;;5116498;28;20652;-50
2023/08/19 01:35:45;;;;;;;26.20;19.37;;;19.40;99.90;;;;;;5117000;28;20194;-50
2023/08/19 01:38:28;;;;;;;23.73;18.70;;;19.40;99.90;;;;;;5116597;28;20266;-51
2023/08/19 01:40:55;;;;;;;21.73;18.50;;;19.40;99.90;;;;;;5116425;28;20425;-51
2023/08/19 01:43:22;;;;;;;29.13;19.00;;;19.40;99.90;;;;;;5116159;28;20418;-52
2023/08/19 01:45:47;;;;;;;24.73;17.40;;;19.50;99.90;;;;;;5116361;28;20429;-50
2023/08/19 01:48:13;;;;;;;24.03;18.07;;;19.40;99.90;;;;;;5116278;28;20416;-50
2023/08/19 01:50:39;;;;;;;25.10;19.00;;;19.40;99.90;;;;;;5116279;28;20179;-50
2023/08/19 01:53:04;;;;;;;25.83;18.63;;;19.40;99.90;;;;;;5115760;28;20667;-51
2023/08/19 01:55:30;;;;;;;23.87;18.33;;;19.40;99.90;;;;;;5116086;28;20262;-51
2023/08/19 01:57:55;;;;;;;23.73;18.97;;;19.40;99.90;;;;;;5116136;28;20183;-51
2023/08/19 02:00:21;;;;;;;22.70;18.53;;;19.50;99.90;;;;;;5116156;28;20513;-50
2023/08/19 02:02:47;;;;;;;25.07;19.03;;;19.50;99.90;;;;;;5116114;28;20183;-50
2023/08/19 02:05:14;;;;;;;21.00;18.67;;;19.50;99.90;;;;;;5115809;28;20513;-51
2023/08/19 02:07:40;;;;;;;19.57;17.30;;;19.50;99.90;;;;;;5115907;28;20195;-50
2023/08/19 02:10:07;;;;;;;26.63;18.27;;;19.50;99.90;;;;;;5115526;28;20411;-51
2023/08/19 02:12:33;;;;;;;18.70;16.80;;;19.60;99.90;;;;;;5115648;28;20242;-51
2023/08/19 02:14:58;;;;;;;22.47;16.80;;;19.60;99.90;;;;;;5115711;28;20449;-51
2023/08/19 02:17:24;;;;;;;25.47;19.10;;;19.50;99.90;;;;;;5115506;28;20537;-50
2023/08/19 02:19:49;;;;;;;22.43;19.03;;;19.60;99.90;;;;;;5116158;28;20181;-51
2023/08/19 02:22:20;;;;;;;26.00;18.63;;;19.60;99.90;;;;;;5115342;28;20247;-50
2023/08/19 02:24:46;;;;;;;26.10;18.07;;;19.60;99.90;;;;;;5115677;28;20190;-51
2023/08/19 02:27:11;;;;;;;22.83;18.40;;;19.60;99.90;;;;;;5115555;28;20410;-50
2023/08/19 02:29:37;;;;;;;23.73;17.83;;;19.60;99.90;;;;;;5115467;28;20575;-50
2023/08/19 02:32:03;;;;;;;22.00;18.40;;;19.60;99.90;;;;;;5115088;28;20193;-50
2023/08/19 02:34:28;;;;;;;28.60;19.33;;;19.60;99.90;;;;;;5115386;28;20190;-50
2023/08/19 02:36:54;;;;;;;20.70;18.07;;;19.60;99.90;;;;;;5115492;28;20210;-50
2023/08/19 02:39:20;;;;;;;25.93;18.40;;;19.60;99.90;;;;;;5115612;28;20181;-51
2023/08/19 02:41:45;;;;;;;26.07;19.10;;;19.60;99.90;;;;;;5114272;28;20503;-50
2023/08/19 02:44:11;;;;;;;26.83;19.03;;;19.60;99.90;;;;;;5115389;28;20179;-50
2023/08/19 02:46:36;;;;;;;20.90;18.40;;;19.60;99.90;;;;;;5115499;28;20184;-51
2023/08/19 02:49:02;;;;;;;21.53;17.60;;;19.60;99.90;;;;;;5115385;28;20176;-51
2023/08/19 02:51:28;;;;;;;21.10;18.90;;;19.60;99.90;;;;;;5114381;28;20210;-51
2023/08/19 02:53:53;;;;;;;28.23;18.90;;;19.60;99.90;;;;;;5114515;28;20239;-51
2023/08/19 02:56:19;;;;;;;20.90;18.60;;;19.60;99.90;;;;;;5115302;28;20321;-51
2023/08/19 02:58:44;;;;;;;21.53;18.73;;;19.60;99.90;;;;;;5114981;28;20300;-51
2023/08/19 03:01:13;;;;;;;26.60;19.17;;;19.50;99.90;;;;;;5115050;28;20180;-51
2023/08/19 03:03:39;;;;;;;25.80;19.37;;;19.50;99.90;;;;;;5114832;28;20188;-51
2023/08/19 03:06:04;;;;;;;23.03;17.63;;;19.50;99.90;;;;;;5115053;28;20411;-51
2023/08/19 03:08:30;;;;;;;25.20;18.37;;;19.40;99.90;;;;;;5114683;28;20180;-51
2023/08/19 03:10:56;;;;;;;21.90;18.43;;;19.40;99.90;;;;;;5114322;28;20572;-51
2023/08/19 03:13:22;;;;;;;30.23;18.90;;;19.40;99.90;;;;;;5114395;28;20235;-50
2023/08/19 03:15:48;;;;;;;21.73;18.17;;;19.40;99.90;;;;;;5114369;28;20441;-52
2023/08/19 03:18:14;;;;;;;23.13;17.57;;;19.50;99.90;;;;;;5114840;28;20175;-51
2023/08/19 03:20:41;;;;;;;21.67;18.50;;;19.40;99.90;;;;;;5114633;28;20234;-52
2023/08/19 03:23:07;;;;;;;20.63;18.37;;;19.50;99.90;;;;;;5114358;28;20480;-51
2023/08/19 03:25:32;;;;;;;24.57;18.33;;;19.50;99.90;;;;;;5114649;28;20497;-51
2023/08/19 03:27:58;;;;;;;24.73;18.47;;;19.50;99.90;;;;;;5114206;28;20192;-51
2023/08/19 03:30:23;;;;;;;23.50;19.47;;;19.50;99.90;;;;;;5114607;28;20268;-51
2023/08/19 03:32:49;;;;;;;26.73;19.67;;;19.50;99.90;;;;;;5114431;28;20220;-50
2023/08/19 03:35:15;;;;;;;20.60;17.73;;;19.50;99.90;;;;;;5114613;28;20262;-51
2023/08/19 03:37:40;;;;;;;23.57;17.73;;;19.50;99.90;;;;;;5114370;28;20231;-51
2023/08/19 03:40:06;;;;;;;23.13;18.40;;;19.50;99.90;;;;;;5114239;28;20180;-51
2023/08/19 03:42:32;;;;;;;24.67;19.17;;;19.40;99.90;;;;;;5114291;28;20627;-51
2023/08/19 03:44:58;;;;;;;24.27;18.73;;;19.40;99.90;;;;;;5114212;28;20412;-51
2023/08/19 03:47:23;;;;;;;27.67;19.37;;;19.50;99.90;;;;;;5114294;28;20211;-51
2023/08/19 03:49:49;;;;;;;26.60;18.07;;;19.40;99.90;;;;;;5114378;28;20194;-50
2023/08/19 03:52:14;;;;;;;22.23;18.10;;;19.40;99.90;;;;;;5115227;28;20225;-51
2023/08/19 03:54:40;;;;;;;20.60;17.77;;;19.40;99.90;;;;;;5118521;28;20184;-51
2023/08/19 03:57:05;;;;;;;24.03;19.00;;;19.30;99.90;;;;;;5118474;28;20628;-50
2023/08/19 03:59:31;;;;;;;20.83;18.43;;;19.30;99.90;;;;;;5118069;28;20172;-51
2023/08/19 04:01:57;;;;;;;25.40;17.50;;;19.30;99.90;;;;;;5117942;28;20235;-51
2023/08/19 04:04:22;;;;;;;25.57;18.53;;;19.30;99.90;;;;;;5118270;28;20183;-51
2023/08/19 04:06:48;;;;;;;25.53;19.80;;;19.40;99.90;;;;;;5118391;28;20183;-50
2023/08/19 04:09:13;;;;;;;24.47;18.53;;;19.40;99.90;;;;;;5118234;28;20271;-51
2023/08/19 04:11:39;;;;;;;28.00;19.70;;;19.40;99.90;;;;;;5118195;28;20212;-50
2023/08/19 04:14:08;;;;;;;24.50;19.70;;;19.40;99.90;;;;;;5118294;28;20208;-51
2023/08/19 04:16:36;;;;;;;23.97;19.67;;;19.30;99.90;;;;;;5118204;28;20217;-51
2023/08/19 04:19:02;;;;;;;23.73;19.20;;;19.30;99.90;;;;;;5117788;28;20407;-51
2023/08/19 04:21:27;;;;;;;28.40;19.70;;;19.30;99.90;;;;;;5117669;28;20524;-50
2023/08/19 04:23:53;;;;;;;32.53;20.57;;;19.20;99.90;;;;;;5117789;28;20199;-51
2023/08/19 04:26:18;;;;;;;24.20;20.30;;;19.20;99.90;;;;;;5117789;28;20180;-51
2023/08/19 04:28:44;;;;;;;22.83;19.20;;;19.30;99.90;;;;;;5117669;28;20175;-51
2023/08/19 04:31:12;;;;;;;23.23;18.30;;;19.30;99.90;;;;;;5117942;28;20176;-51
2023/08/19 04:33:38;;;;;;;23.00;19.33;;;19.40;99.90;;;;;;5117784;28;20191;-51
2023/08/19 04:36:04;;;;;;;23.90;20.03;;;19.40;99.90;;;;;;5117277;28;20431;-51
2023/08/19 04:38:30;;;;;;;26.90;19.70;;;19.30;99.90;;;;;;5117684;28;20421;-50
2023/08/19 04:40:58;;;;;;;22.00;18.93;;;19.40;99.90;;;;;;5117631;28;20178;-51
2023/08/19 04:43:24;;;;;;;21.27;18.73;;;19.40;99.90;;;;;;5117809;28;20518;-51
2023/08/19 04:45:50;;;;;;;23.67;19.30;;;19.40;99.90;;;;;;5117796;28;20445;-51
2023/08/19 04:48:15;;;;;;;24.17;19.30;;;19.40;99.90;;;;;;5117161;28;20523;-51
2023/08/19 04:50:41;;;;;;;34.60;19.30;;;19.40;99.90;;;;;;5117368;28;20181;-50
2023/08/19 04:53:06;;;;;;;23.33;19.33;;;19.40;99.90;;;;;;5117323;28;20203;-51
2023/08/19 04:55:32;;;;;;;23.30;18.53;;;19.40;99.90;;;;;;5117219;28;20190;-50
2023/08/19 04:57:58;;;;;;;30.03;19.23;;;19.50;99.90;;;;;;5117263;28;20192;-51
2023/08/19 05:00:23;;;;;;;27.40;18.93;;;19.50;99.90;;;;;;5117337;28;20183;-51
2023/08/19 05:02:49;;;;;;;20.33;17.80;;;19.50;99.90;;;;;;5117127;28;20603;-51
2023/08/19 05:05:15;;;;;;;20.60;18.40;;;19.50;99.90;;;;;;5116211;28;20179;-52
2023/08/19 05:07:41;;;;;;;26.03;17.20;;;19.60;99.90;;;;;;5117439;28;20181;-50
2023/08/19 05:10:08;;;;;;;21.63;17.00;;;19.60;99.90;;;;;;5116793;28;20413;-51
2023/08/19 05:12:33;;;;;;;21.47;18.67;;;19.70;99.90;;;;;;5116700;28;20200;-51
2023/08/19 05:14:59;;;;;;;24.10;18.00;;;19.70;99.90;;;;;;5116829;28;20764;-51
2023/08/19 05:17:25;;;;;;;21.60;17.67;;;19.70;99.90;;;;;;5117214;28;20202;-51
2023/08/19 05:19:50;;;;;;;22.03;18.00;;;19.70;99.90;;;;;;5116970;28;20186;-50
2023/08/19 05:22:16;;;;;;;22.90;18.97;;;19.70;99.90;;;;;;5116497;28;20239;-51
2023/08/19 05:24:41;;;;;;;28.57;18.30;;;19.70;99.90;;;;;;5116601;28;20171;-51
2023/08/19 05:27:08;;;;;;;21.70;18.20;;;19.80;99.90;;;;;;5116870;28;20281;-51
2023/08/19 05:29:34;;;;;;;22.03;18.27;;;19.80;99.90;;;;;;5116842;28;20421;-51
2023/08/19 05:31:59;;;;;;;20.30;17.70;;;19.80;99.90;;;;;;5116563;28;20204;-51
2023/08/19 05:34:25;;;;;;;22.63;16.90;;;19.90;99.90;;;;;;5116487;28;20637;-52
2023/08/19 05:36:51;;;;;;;24.07;17.63;;;20.00;99.90;;;;;;5116709;28;20176;-52
2023/08/19 05:39:17;;;;;;;23.47;17.10;;;20.10;99.90;;;;;;5116471;28;20180;-52
2023/08/19 05:41:42;;;;;;;19.80;17.73;;;20.20;99.90;;;;;;5116849;28;20192;-52
2023/08/19 05:44:08;;;;;;;17.70;15.73;;;20.20;99.90;;;;;;5116359;28;20660;-51
2023/08/19 05:46:33;;;;;;;27.77;16.00;;;20.40;99.90;;;;;;5116727;28;20267;-52
2023/08/19 05:49:00;;;;;;;20.60;15.70;;;20.60;99.90;;;;;;5116287;28;20534;-53
2023/08/19 05:51:26;;;;;;;17.97;16.10;;;20.70;99.90;;;;;;5115872;28;20241;-52
2023/08/19 05:53:58;;;;;;;18.73;16.77;;;20.80;99.90;;;;;;5115937;28;20418;-52
2023/08/19 05:56:24;;;;;;;18.60;15.50;;;20.90;99.90;;;;;;5116225;28;20263;-52
2023/08/19 05:58:50;;;;;;;16.93;14.80;;;21.10;99.90;;;;;;5116561;28;20869;-52
2023/08/19 06:01:15;;;;;;;16.00;14.07;;;21.30;99.90;;;;;;5116204;28;20272;-52
2023/08/19 06:03:41;;;;;;;20.10;15.50;;;21.50;99.90;;;;;;5116185;28;20176;-52
2023/08/19 06:06:06;;;;;;;18.43;14.53;;;21.60;61.70;;;;;;5115680;28;20628;-53
2023/08/19 06:08:33;;;;;;;21.70;14.20;;;21.80;1.00;;;;;;5115894;28;20260;-52
2023/08/19 06:11:06;;;;;;;19.43;15.00;;;22.00;1.00;;;;;;5115642;28;20183;-52
2023/08/19 06:13:35;;;;;;;17.30;14.63;;;22.10;1.00;;;;;;5115700;28;20457;-53
2023/08/19 06:16:03;;;;;;;16.13;13.47;;;22.20;1.00;;;;;;5115173;28;20426;-52
2023/08/19 06:18:29;;;;;;;17.33;12.90;;;22.40;1.00;;;;;;5115317;28;20773;-53
2023/08/19 06:20:55;;;;;;;14.90;13.30;;;22.50;99.90;;;;;;5115588;28;20486;-52
2023/08/19 06:23:21;;;;;;;14.53;13.13;;;22.60;99.90;;;;;;5115867;28;20421;-51
2023/08/19 06:25:49;;;;;;;13.77;12.20;;;22.80;99.90;;;;;;5115657;28;20426;-52
2023/08/19 06:28:15;;;;;;;14.40;12.90;;;23.00;43.50;;;;;;5115559;28;20418;-51
2023/08/19 06:30:41;;;;;;;18.63;12.67;;;23.10;1.00;;;;;;5115671;28;20498;-51
2023/08/19 06:33:07;;;;;;;13.27;11.97;;;23.30;1.00;;;;;;5115022;28;20953;-51
2023/08/19 06:35:33;;;;;;;13.67;12.13;;;23.50;1.00;;;;;;5115042;28;20184;-52
2023/08/19 06:38:05;;;;;;;18.73;12.60;;;23.70;1.00;;;;;;5115366;28;20415;-51
2023/08/19 06:40:34;;;;;;;13.40;12.10;;;23.80;99.90;;;;;;5115673;28;20398;-51
2023/08/19 06:43:00;;;;;;;18.27;13.17;;;23.90;1.00;;;;;;5115392;28;20431;-51
2023/08/19 06:45:26;;;;;;;13.63;12.20;;;24.00;1.00;;;;;;5115439;28;20418;-52
2023/08/19 06:47:53;;;;;;;14.13;12.77;;;24.10;99.90;;;;;;5115238;28;20430;-51
2023/08/19 06:50:19;;;;;;;16.73;12.87;;;24.30;1.00;;;;;;5114985;28;20410;-52
2023/08/19 06:52:45;;;;;;;15.03;12.80;;;24.40;1.00;;;;;;5114637;28;20464;-52
2023/08/19 06:55:12;;;;;;;14.50;12.07;;;24.50;99.90;;;;;;5115014;28;20411;-52
2023/08/19 06:57:47;;;;;;;14.37;12.70;;;24.70;99.90;;;;;;5114855;28;20425;-52
2023/08/19 07:00:14;;;;;;;14.43;11.57;;;24.80;99.90;;;;;;5115203;28;20428;-52
2023/08/19 07:02:44;;;;;;;12.77;11.47;;;25.10;99.90;;;;;;5115210;28;20445;-52
2023/08/19 07:05:19;;;;;;;14.90;11.63;;;25.40;99.90;;;;;;5114969;28;20431;-51
2023/08/19 07:07:49;;;;;;;15.13;12.23;;;25.50;26.60;;;;;;5114949;28;20414;-52
2023/08/19 07:10:16;;;;;;;12.60;11.30;;;25.60;99.90;;;;;;5114585;28;20410;-53
2023/08/19 07:12:43;;;;;;;13.50;11.20;;;25.80;14.30;;;;;;5096430;28;20548;-52
2023/08/19 07:15:13;;;;;;;14.73;11.30;;;25.80;1.00;;;;;;5114427;28;20418;-52
2023/08/19 07:17:43;;;;;;;14.20;11.30;;;25.90;1.00;;;;;;5114007;28;20471;-52
2023/08/19 07:20:18;;;;;;;12.50;11.20;;;26.10;10.30;;;;;;5114530;28;20506;-52
2023/08/19 07:22:46;;;;;;;13.77;10.97;;;26.30;1.00;;;;;;5114667;28;20938;-52
2023/08/19 07:25:12;;;;;;;12.37;10.90;;;26.40;1.00;;;;;;5114496;28;20518;-52
2023/08/19 07:27:38;;;;;;;12.07;10.70;;;26.60;1.00;;;;;;5113670;28;20435;-52
2023/08/19 07:30:05;;;;;;;13.00;11.57;;;26.80;1.00;;;;;;5114453;28;20419;-52
2023/08/19 07:32:34;;;;;;;13.10;11.50;;;27.00;1.00;;;;;;5113596;28;20487;-52
2023/08/19 07:35:00;;;;;;;12.07;10.93;;;27.10;1.00;;;;;;5113870;28;20933;-52
2023/08/19 07:37:26;;;;;;;11.67;10.57;;;27.20;1.00;;;;;;5113929;28;20415;-52
2023/08/19 07:39:55;;;;;;;12.07;10.90;;;27.40;1.00;;;;;;5114418;28;20181;-52
2023/08/19 07:42:20;;;;;;;12.33;10.63;;;27.70;1.00;;;;;;5113882;28;20192;-52
2023/08/19 07:44:46;;;;;;;12.97;11.10;;;27.80;1.00;;;;;;5114423;28;20422;-52
2023/08/19 07:47:11;;;;;;;12.37;11.17;;;28.00;1.00;;;;;;5113811;28;20188;-52
2023/08/19 07:49:40;;;;;;;13.20;10.87;;;28.20;1.00;;;;;;5114149;28;20177;-52
2023/08/19 07:52:06;;;;;;;16.27;10.30;;;28.60;1.00;;;;;;5113967;28;20200;-52
2023/08/19 07:54:32;;;;;;;11.63;10.43;;;28.70;1.00;;;;;;5113585;28;20449;-50
2023/08/19 07:56:58;;;;;;;11.83;10.73;;;28.60;1.00;;;;;;5113713;28;20488;-50
2023/08/19 07:59:25;;;;;;;12.80;10.57;;;28.60;1.00;;;;;;5114201;28;20181;-51
2023/08/19 08:01:52;;;;;;;16.17;11.47;;;28.40;1.00;;;;;;5114194;28;20418;-50
2023/08/19 08:04:18;;;;;;;11.03;10.03;;;28.50;1.00;;;;;;5113798;28;20410;-50
2023/08/19 08:06:45;;;;;;;12.37;10.70;;;28.80;1.00;;;;;;5113959;28;20808;-50
2023/08/19 08:09:11;;;;;;;13.47;10.70;;;29.20;1.00;;;;;;5113752;28;20403;-50
2023/08/19 08:11:36;;;;;;;15.40;10.53;;;29.60;1.00;;;;;;5113863;28;20971;-51
2023/08/19 08:14:02;;;;;;;11.13;9.93;;;29.90;1.00;;;;;;5113747;28;20181;-51
2023/08/19 08:16:28;;;;;;;17.70;10.73;;;30.00;1.00;;;;;;5114009;28;20181;-51
2023/08/19 08:18:53;;;;;;;11.40;10.23;;;30.10;1.00;;;;;;5114393;28;20264;-51
2023/08/19 08:21:20;;;;;;;11.60;10.43;;;30.20;1.00;;;;;;5113695;28;20232;-51
2023/08/19 08:23:45;;;;;;;11.73;10.50;;;30.30;1.00;;;;;;5114426;28;20180;-51
2023/08/19 08:26:11;;;;;;;13.73;10.37;;;30.50;1.00;;;;;;5113945;28;20411;-51
2023/08/19 08:28:37;;;;;;;15.57;11.83;;;30.50;1.00;;;;;;5113456;28;20211;-53
2023/08/19 08:31:03;;;;;;;15.27;10.27;;;30.40;1.00;;;;;;5113856;28;20205;-53
2023/08/19 08:33:28;;;;;;;13.30;10.03;;;30.20;1.00;;;;;;5113609;28;20648;-53
2023/08/19 08:35:54;;;;;;;18.07;10.37;;;30.30;1.00;;;;;;5113912;28;20181;-53
2023/08/19 08:38:19;;;;;;;11.07;9.97;;;30.70;1.00;;;;;;5114998;28;20176;-53
2023/08/19 08:40:45;;;;;;;10.87;9.73;;;31.00;1.00;;;;;;5118024;28;20267;-53
2023/08/19 08:43:12;;;;;;;13.13;10.27;;;31.10;1.00;;;;;;5117683;28;20184;-54
2023/08/19 08:45:38;;;;;;;10.57;9.50;;;31.20;1.00;;;;;;5117833;28;20180;-53
2023/08/19 08:48:05;;;;;;;12.80;10.53;;;31.20;1.00;;;;;;5117672;28;20422;-54
2023/08/19 08:50:31;;;;;;;11.53;10.50;;;31.30;1.00;;;;;;5118034;28;20517;-54
2023/08/19 08:52:57;;;;;;;11.27;9.90;;;31.20;1.00;;;;;;5117509;28;21008;-54
2023/08/19 08:55:23;;;;;;;11.80;10.30;;;31.10;1.00;;;;;;5117592;28;20184;-55
2023/08/19 08:57:49;;;;;;;10.97;9.87;;;31.30;1.00;;;;;;5117688;28;20494;-55
2023/08/19 09:00:16;;;;;;;12.53;10.30;;;31.50;1.00;;;;;;5117755;28;20913;-55
2023/08/19 09:02:43;;;;;;;10.33;9.43;;;31.50;1.00;;;;;;5117783;28;20268;-53
2023/08/19 09:05:09;;;;;;;11.50;10.47;;;31.40;1.00;;;;;;5117041;28;20443;-54
2023/08/19 09:07:39;;;;;;;11.50;10.40;;;31.20;1.00;;;;;;5117618;28;20418;-54
2023/08/19 09:10:15;;;;;;;10.93;9.93;;;30.90;1.00;;;;;;5117339;28;20425;-54
2023/08/19 09:12:47;;;;;;;10.93;9.80;;;31.00;1.00;;;;;;5117322;28;20449;-54
2023/08/19 09:15:15;;;;;;;11.27;10.17;;;31.10;1.00;;;;;;5116600;28;20875;-55
2023/08/19 09:17:41;;;;;;;13.90;9.57;;;31.10;1.00;;;;;;5116583;28;20414;-54
2023/08/19 09:20:08;;;;;;;12.27;11.17;;;31.10;1.00;;;;;;5116981;28;20780;-55
2023/08/19 09:22:37;;;;;;;14.50;10.97;;;31.20;1.00;;;;;;5116314;28;20811;-54
2023/08/19 09:25:06;;;;;;;11.77;10.53;;;31.10;1.00;;;;;;5116238;28;20927;-55
2023/08/19 09:27:32;;;;;;;11.63;10.43;;;30.90;1.00;;;;;;5116792;28;20415;-54
2023/08/19 09:29:58;;;;;;;12.33;10.10;;;30.90;1.00;;;;;;5116599;28;20430;-55
2023/08/19 09:32:44;;;;;;;11.27;10.17;;;30.70;1.00;;;;;;5116599;28;20461;-55
2023/08/19 09:35:12;;;;;;;15.63;10.97;;;30.70;1.00;;;;;;5115974;28;20406;-55
2023/08/19 09:37:38;;;;;;;11.47;10.37;;;30.70;1.00;;;;;;5115697;28;20410;-55
2023/08/19 09:40:12;;;;;;;11.80;10.60;;;30.70;1.00;;;;;;5116464;28;20439;-55
2023/08/19 09:42:40;;;;;;;12.00;10.80;;;30.80;1.00;;;;;;5116527;28;20409;-55
2023/08/19 09:45:07;;;;;;;12.43;11.30;;;30.70;1.00;;;;;;5116074;28;20940;-54
2023/08/19 09:47:48;;;;;;;12.70;11.50;;;30.30;1.00;;;;;;5116448;28;20415;-54
2023/08/19 09:50:15;;;;;;;11.80;10.70;;;30.10;1.00;;;;;;5115532;28;20436;-54
2023/08/19 09:52:41;;;;;;;13.70;11.23;;;30.10;1.00;;;;;;5116294;28;20450;-54
2023/08/19 09:55:07;;;;;;;13.23;11.40;;;30.40;1.00;;;;;;5115940;28;20757;-54
2023/08/19 09:57:35;;;;;;;12.03;10.80;;;30.70;1.00;;;;;;5116099;28;20172;-54
2023/08/19 10:00:06;;;;;;;15.07;11.90;;;30.90;1.00;;;;;;5116145;28;20181;-56
2023/08/19 10:02:33;;;;;;;16.00;11.43;;;31.00;1.00;;;;;;5116385;28;20399;-55
2023/08/19 10:04:59;;;;;;;11.90;10.80;;;30.90;1.00;;;;;;5115701;28;20411;-55
2023/08/19 10:07:30;;;;;;;12.50;11.20;;;31.20;1.00;;;;;;5115987;28;20577;-55
2023/08/19 10:09:58;;;;;;;14.70;11.67;;;31.50;1.00;;;;;;5115197;28;20628;-55
2023/08/19 10:12:25;;;;;;;13.60;12.50;;;31.80;1.00;;;;;;5115664;28;20465;-55
2023/08/19 10:14:57;;;;;;;12.20;10.90;;;32.00;1.00;;;;;;5115517;28;20422;-55
2023/08/19 10:17:25;;;;;;;12.87;11.67;;;32.30;1.00;;;;;;5115670;28;20971;-55
2023/08/19 10:19:59;;;;;;;12.70;11.60;;;32.40;1.00;;;;;;5115522;28;20816;-55
2023/08/19 10:22:25;;;;;;;12.07;10.97;;;32.40;1.00;;;;;;5115398;28;20573;-56
2023/08/19 10:24:53;;;;;;;13.07;11.80;;;32.60;1.00;;;;;;5115890;28;20411;-55
2023/08/19 10:27:19;;;;;;;12.23;11.13;;;32.90;1.00;;;;;;5115511;28;20430;-55
2023/08/19 10:29:48;;;;;;;12.73;11.57;;;33.20;1.00;;;;;;5115200;28;20914;-55
2023/08/19 10:32:30;;;;;;;12.87;11.60;;;33.50;1.00;;;;;;5115175;28;20578;-55
2023/08/19 10:35:08;;;;;;;12.70;11.40;;;33.90;1.00;;;;;;5115085;28;20434;-56
2023/08/19 10:37:39;;;;;;;12.07;11.00;;;34.10;1.00;;;;;;5115133;28;20429;-56
2023/08/19 10:40:08;;;;;;;14.23;11.50;;;34.40;1.00;;;;;;5115148;28;20878;-56
2023/08/19 10:42:34;;;;;;;11.33;10.33;;;34.60;1.00;;;;;;5115192;28;20753;-56
2023/08/19 10:45:00;;;;;;;11.27;10.20;;;34.90;1.00;;;;;;5114902;28;20394;-56
2023/08/19 10:47:26;;;;;;;11.83;10.70;;;34.90;1.00;;;;;;5115040;28;20546;-56
2023/08/19 10:50:01;;;;;;;12.10;10.80;;;35.10;1.00;;;;;;5114499;28;20173;-56
2023/08/19 10:52:26;;;;;;;13.17;11.17;;;34.80;1.00;;;;;;5114757;28;20227;-58
2023/08/19 10:54:53;;;;;;;13.07;11.60;;;34.60;1.00;;;;;;5114726;28;20455;-57
2023/08/19 10:57:23;;;;;;;12.53;11.10;;;34.60;1.00;;;;;;5114459;28;20188;-57
2023/08/19 10:59:58;;;;;;;18.50;10.47;;;34.90;1.00;;;;;;5114742;28;20725;-57
2023/08/19 11:02:28;;;;;;;11.10;10.00;;;35.40;1.00;;;;;;5113769;28;20446;-57
2023/08/19 11:04:54;;;;;;;13.43;11.70;;;35.60;1.00;;;;;;5114852;28;20906;-57
2023/08/19 11:07:21;;;;;;;14.10;11.20;;;35.90;1.00;;;;;;5114311;28;20464;-57
2023/08/19 11:09:48;;;;;;;12.07;10.90;;;36.00;1.00;;;;;;5114508;28;20491;-57
2023/08/19 11:12:19;;;;;;;11.23;10.13;;;36.00;1.00;;;;;;5114439;28;20453;-58
2023/08/19 11:14:47;;;;;;;12.13;10.50;;;35.90;1.00;;;;;;5115073;28;20457;-58
2023/08/19 11:17:13;;;;;;;11.10;10.20;;;35.90;1.00;;;;;;5114597;28;20909;-58
2023/08/19 11:19:38;;;;;;;12.40;11.10;;;35.60;1.00;;;;;;5114861;28;20437;-57
2023/08/19 11:22:04;;;;;;;12.20;11.10;;;35.00;1.00;;;;;;5114283;28;20232;-57
2023/08/19 11:24:31;;;;;;;12.07;11.07;;;34.30;1.00;;;;;;5114847;28;20184;-57
2023/08/19 11:26:57;;;;;;;12.23;11.10;;;33.60;1.00;;;;;;5114694;28;20181;-57
2023/08/19 11:29:23;;;;;;;14.47;11.47;;;33.40;1.00;;;;;;5114415;28;20736;-56
2023/08/19 11:31:49;;;;;;;12.50;10.70;;;33.70;1.00;;;;;;5114352;28;20231;-56
2023/08/19 11:34:14;;;;;;;11.87;10.70;;;34.30;1.00;;;;;;5114641;28;20566;-56
2023/08/19 11:36:43;;;;;;;12.63;11.47;;;34.80;1.00;;;;;;5114585;28;20287;-56
2023/08/19 11:39:09;;;;;;;12.57;11.47;;;34.70;1.00;;;;;;5114722;28;20583;-56
2023/08/19 11:41:35;;;;;;;12.50;11.30;;;34.40;1.00;;;;;;5113758;28;20493;-56
2023/08/19 11:44:05;;;;;;;12.43;11.23;;;33.80;1.00;;;;;;5113971;28;20644;-56
2023/08/19 11:46:31;;;;;;;13.07;11.63;;;33.00;1.00;;;;;;5114034;28;20516;-55
2023/08/19 11:48:59;;;;;;;12.80;11.60;;;32.20;1.00;;;;;;5113997;28;20415;-56
2023/08/19 11:51:27;;;;;;;13.40;12.30;;;31.80;1.00;;;;;;5113889;28;20514;-56
2023/08/19 11:54:00;;;;;;;12.63;11.40;;;31.40;1.00;;;;;;5113516;28;20983;-53
2023/08/19 11:56:25;;;;;;;13.73;12.50;;;31.00;1.00;;;;;;5114511;28;20539;-53
2023/08/19 11:58:52;;;;;;;15.90;12.57;;;30.90;1.00;;;;;;5114522;28;20439;-55
2023/08/19 12:01:19;;;;;;;14.00;12.67;;;30.70;1.00;;;;;;5114185;28;20238;-54
2023/08/19 12:03:46;;;;;;;13.53;12.20;;;30.50;1.00;;;;;;5113732;28;20509;-54
2023/08/19 12:06:13;;;;;;;12.87;11.60;;;30.30;1.00;;;;;;5113785;28;20414;-54
2023/08/19 12:08:40;;;;;;;13.33;11.97;;;30.10;1.00;;;;;;5113806;28;20497;-54
2023/08/19 12:11:06;;;;;;;14.40;13.10;;;30.00;1.00;;;;;;5113926;28;20493;-54
2023/08/19 12:13:32;;;;;;;14.90;12.50;;;29.90;1.00;;;;;;5115372;28;20862;-53
2023/08/19 12:15:58;;;;;;;14.30;12.70;;;29.90;1.00;;;;;;5117874;28;20489;-54
2023/08/19 12:18:24;;;;;;;15.23;12.90;;;29.80;1.00;;;;;;5118223;28;20177;-54
2023/08/19 12:20:51;;;;;;;14.37;12.87;;;29.80;1.00;;;;;;5117736;28;20419;-53
2023/08/19 12:23:17;;;;;;;15.43;13.60;;;29.90;1.00;;;;;;5117744;28;20978;-54
2023/08/19 12:26:01;;;;;;;13.53;12.23;;;29.90;1.00;;;;;;5117721;28;20411;-53
2023/08/19 12:28:28;;;;;;;14.90;12.73;;;30.00;1.00;;;;;;5117989;28;20582;-53
2023/08/19 12:30:55;;;;;;;14.80;13.40;;;30.00;1.00;;;;;;5117814;28;20414;-53